Brasopolis, Brazil
Current Conditions -  °F | °C
As of 10:00 AM on Monday 26 Jan 2015 (Local Time) from SBGW Reporting Station
Broken Clouds Broken Clouds  
Wind Chill: 77°   Ceiling: 9000
Heat Index: 79°   Visibility: 6mi
Dew Point: 66°   Wind: 0mph
Humidity: 69%   Direction: NA
Pressure: 30.03"   Gusts: NA
Location:  22.47°S, 45.61°W
Report Text: SBGW 261200Z 00000KT 9999 FEW025 BKN090 25/19 Q1017
Loading
Personal Weather Stations






























Interactive Weather Map New forecast layout! Learn more

10-Day Weather Forecast

Advertisements
Track Severe Weather on mobile